Time;durP1;ratioP1;P1;durP2;ratioP2;P2;SDS_P1;SDS_P2;PMS_P1;PMS_P2;Temp;Humidity;BMP_temperature;BMP_pressure;BME280_temperature;BME280_humidity;BME280_pressure;Samples;Min_cycle;Max_cycle;Signal;HPM_P1;HPM_P2
2024/04/05 00:08:11;;;;;;;0.00;0.00;;;;;;;;;;31274679;28;20231;-78
2024/04/05 00:23:15;;;;;;;0.00;0.00;;;;;;;;;;31236761;28;20239;-82
2024/04/05 00:38:19;;;;;;;0.00;0.00;;;;;;;;;;31257224;28;20607;-81
2024/04/05 00:53:25;;;;;;;0.00;0.00;;;;;;;;;;31245606;28;20249;-81
2024/04/05 01:08:56;;;;;;;0.00;0.00;;;;;;;;;;31323496;28;20245;-80
2024/04/05 01:23:59;;;;;;;0.00;0.00;;;;;;;;;;31352687;28;20301;-80
2024/04/05 01:39:02;;;;;;;0.00;0.00;;;;;;;;;;31325039;28;20227;-80
2024/04/05 01:54:06;;;;;;;0.00;0.00;;;;;;;;;;31312692;28;20678;-79
2024/04/05 02:09:36;;;;;;;0.00;0.00;;;;;;;;;;31339990;28;20629;-79
2024/04/05 02:24:40;;;;;;;0.00;0.00;;;;;;;;;;31346818;28;20237;-79
2024/04/05 02:39:43;;;;;;;0.00;0.00;;;;;;;;;;31353153;28;20653;-79
2024/04/05 02:54:47;;;;;;;0.00;0.00;;;;;;;;;;31368191;28;20234;-80
2024/04/05 03:09:50;;;;;;;0.00;0.00;;;;;;;;;;31275102;28;20322;-81
2024/04/05 03:25:21;;;;;;;0.00;0.00;;;;;;;;;;31254109;28;20278;-81
2024/04/05 03:40:24;;;;;;;0.00;0.00;;;;;;;;;;31235603;28;20255;-81
2024/04/05 03:55:28;;;;;;;0.00;0.00;;;;;;;;;;31248328;28;20240;-80
2024/04/05 04:10:31;;;;;;;0.00;0.00;;;;;;;;;;31279930;28;20242;-80
2024/04/05 04:26:02;;;;;;;0.00;0.00;;;;;;;;;;31259927;28;20263;-79
2024/04/05 04:41:05;;;;;;;0.00;0.00;;;;;;;;;;31249697;28;20703;-79
2024/04/05 04:56:10;;;;;;;0.00;0.00;;;;;;;;;;31239607;28;20277;-79
2024/04/05 05:11:14;;;;;;;0.00;0.00;;;;;;;;;;31245092;28;20660;-80
2024/04/05 05:26:45;;;;;;;0.00;0.00;;;;;;;;;;31205284;28;20379;-78
2024/04/05 05:41:48;;;;;;;0.00;0.00;;;;;;;;;;31238098;28;20231;-79
2024/04/05 05:56:53;;;;;;;0.03;0.03;;;;;;;;;;31213359;28;20254;-79
2024/04/05 06:11:58;;;;;;;0.00;0.00;;;;;;;;;;31219161;28;20727;-78
2024/04/05 06:27:28;;;;;;;0.00;0.00;;;;;;;;;;31220900;28;20540;-78
2024/04/05 06:42:31;;;;;;;0.00;0.00;;;;;;;;;;31202442;28;20736;-78
2024/04/05 06:57:35;;;;;;;0.00;0.00;;;;;;;;;;31212456;28;20325;-79
2024/04/05 07:12:41;;;;;;;0.00;0.00;;;;;;;;;;31344948;28;20238;-78
2024/04/05 07:27:53;;;;;;;0.00;0.00;;;;;;;;;;31347161;28;20851;-79
2024/04/05 07:42:57;;;;;;;0.00;0.00;;;;;;;;;;31366160;28;20239;-78
2024/04/05 07:58:04;;;;;;;0.00;0.00;;;;;;;;;;31358044;28;20242;-78
2024/04/05 08:13:08;;;;;;;0.00;0.00;;;;;;;;;;31366983;28;20340;-78
2024/04/05 08:28:18;;;;;;;0.00;0.00;;;;;;;;;;31353463;28;20363;-78
2024/04/05 08:43:24;;;;;;;0.00;0.00;;;;;;;;;;31338152;28;20230;-78
2024/04/05 08:58:27;;;;;;;0.00;0.00;;;;;;;;;;31346626;28;20626;-79
2024/04/05 09:13:31;;;;;;;0.00;0.00;;;;;;;;;;31339964;28;20241;-78
2024/04/05 09:28:40;;;;;;;0.00;0.00;;;;;;;;;;31337482;28;20234;-79
2024/04/05 09:43:44;;;;;;;0.00;0.00;;;;;;;;;;31346729;28;20234;-79
2024/04/05 09:58:49;;;;;;;0.00;0.00;;;;;;;;;;31337872;28;20239;-79
2024/04/05 10:14:02;;;;;;;0.00;0.00;;;;;;;;;;31362739;28;20321;-79
2024/04/05 10:29:14;;;;;;;0.00;0.00;;;;;;;;;;31333018;28;20257;-79
2024/04/05 10:44:18;;;;;;;0.00;0.00;;;;;;;;;;31354627;28;20256;-80
2024/04/05 10:59:21;;;;;;;0.00;0.00;;;;;;;;;;31338636;28;20595;-80
2024/04/05 11:14:25;;;;;;;0.00;0.00;;;;;;;;;;31363697;28;20277;-80
2024/04/05 11:29:37;;;;;;;0.00;0.00;;;;;;;;;;31370109;28;20306;-79
2024/04/05 11:44:41;;;;;;;0.00;0.00;;;;;;;;;;31349725;28;20292;-79
2024/04/05 11:59:44;;;;;;;0.00;0.00;;;;;;;;;;31341739;28;20663;-79
2024/04/05 12:14:48;;;;;;;0.00;0.00;;;;;;;;;;31332132;28;20230;-80
2024/04/05 12:29:58;;;;;;;0.00;0.00;;;;;;;;;;31356695;28;20231;-79
2024/04/05 12:45:08;;;;;;;0.00;0.00;;;;;;;;;;31356429;28;20230;-79
2024/04/05 13:00:14;;;;;;;0.00;0.00;;;;;;;;;;31354662;28;20420;-80
2024/04/05 13:15:18;;;;;;;0.00;0.00;;;;;;;;;;31358573;28;20223;-79
2024/04/05 13:30:28;;;;;;;0.00;0.00;;;;;;;;;;31354872;28;20233;-79
2024/04/05 13:45:32;;;;;;;0.00;0.00;;;;;;;;;;31385629;28;20340;-79
2024/04/05 14:00:36;;;;;;;0.00;0.00;;;;;;;;;;31385772;28;20231;-79
2024/04/05 14:15:39;;;;;;;0.00;0.00;;;;;;;;;;31363217;28;20611;-79
2024/04/05 14:30:55;;;;;;;0.00;0.00;;;;;;;;;;31345185;28;20249;-79
2024/04/05 14:45:59;;;;;;;0.00;0.00;;;;;;;;;;31343343;28;20227;-79
2024/04/05 15:01:03;;;;;;;0.00;0.00;;;;;;;;;;31359310;28;20242;-80
2024/04/05 15:16:08;;;;;;;0.00;0.00;;;;;;;;;;31283151;28;20238;-80
2024/04/05 15:31:18;;;;;;;0.00;0.00;;;;;;;;;;31269677;28;20560;-80
2024/04/05 15:46:25;;;;;;;0.00;0.00;;;;;;;;;;31260332;28;20231;-79
2024/04/05 16:01:29;;;;;;;0.00;0.00;;;;;;;;;;31274438;28;20322;-80
2024/04/05 16:16:32;;;;;;;0.00;0.00;;;;;;;;;;31363308;28;20230;-79
2024/04/05 16:31:42;;;;;;;0.00;0.00;;;;;;;;;;31362686;28;20663;-80
2024/04/05 16:46:45;;;;;;;0.00;0.00;;;;;;;;;;31368702;28;20234;-79
2024/04/05 17:01:50;;;;;;;0.00;0.00;;;;;;;;;;31358271;28;20326;-79
2024/04/05 17:16:53;;;;;;;0.00;0.00;;;;;;;;;;31359318;28;20234;-79
2024/04/05 17:32:04;;;;;;;0.00;0.00;;;;;;;;;;31337551;28;20249;-80
2024/04/05 17:47:07;;;;;;;0.00;0.00;;;;;;;;;;31359045;28;20230;-80
2024/04/05 18:02:10;;;;;;;0.00;0.00;;;;;;;;;;31352370;28;20925;-79
2024/04/05 18:17:14;;;;;;;0.00;0.00;;;;;;;;;;31367458;28;20943;-80
2024/04/05 18:32:24;;;;;;;0.00;0.00;;;;;;;;;;31351104;28;20739;-79
2024/04/05 18:47:28;;;;;;;0.10;0.10;;;;;;;;;;31356529;28;20230;-80
2024/04/05 19:02:31;;;;;;;0.00;0.00;;;;;;;;;;31293121;28;20729;-80
2024/04/05 19:17:34;;;;;;;0.00;0.00;;;;;;;;;;31190449;28;20274;-79
2024/04/05 19:32:44;;;;;;;0.00;0.00;;;;;;;;;;31188953;28;20249;-81
2024/04/05 19:47:48;;;;;;;0.00;0.00;;;;;;;;;;31227531;28;20223;-81
2024/04/05 20:02:54;;;;;;;0.00;0.00;;;;;;;;;;31236201;28;20642;-80
2024/04/05 20:17:57;;;;;;;0.00;0.00;;;;;;;;;;31247990;28;20243;-81
2024/04/05 20:33:07;;;;;;;0.00;0.00;;;;;;;;;;31222408;28;20588;-81
2024/04/05 20:48:10;;;;;;;0.00;0.00;;;;;;;;;;31236096;28;20676;-80
2024/04/05 21:03:14;;;;;;;0.00;0.00;;;;;;;;;;31214730;28;20240;-80
2024/04/05 21:18:17;;;;;;;0.00;0.00;;;;;;;;;;31219245;28;20228;-80
2024/04/05 21:33:27;;;;;;;0.00;0.00;;;;;;;;;;31238951;28;20235;-80
2024/04/05 21:48:30;;;;;;;0.00;0.00;;;;;;;;;;31230409;28;20227;-80
2024/04/05 22:03:34;;;;;;;0.00;0.00;;;;;;;;;;31286690;28;20723;-80
2024/04/05 22:18:37;;;;;;;0.00;0.00;;;;;;;;;;31367208;28;20269;-80
2024/04/05 22:33:47;;;;;;;0.00;0.00;;;;;;;;;;31345459;28;20244;-82
2024/04/05 22:48:51;;;;;;;0.00;0.00;;;;;;;;;;31353827;28;20329;-83
2024/04/05 23:03:54;;;;;;;0.00;0.00;;;;;;;;;;31319340;28;20318;-83
2024/04/05 23:18:57;;;;;;;0.00;0.00;;;;;;;;;;31255086;28;20656;-84
2024/04/05 23:34:11;;;;;;;0.00;0.00;;;;;;;;;;31302119;28;20676;-81
2024/04/05 23:49:15;;;;;;;0.00;0.00;;;;;;;;;;31289796;28;20236;-80
